sensor_id;sensor_type;location;lat;lon;timestamp;temperature;humidity
2002;DHT22;1003;48.002;7.788;2023-02-08T00:00:54;-3.00;99.90
2002;DHT22;1003;48.002;7.788;2023-02-08T00:03:21;-2.90;99.90
2002;DHT22;1003;48.002;7.788;2023-02-08T00:05:48;-2.80;99.90
2002;DHT22;1003;48.002;7.788;2023-02-08T00:08:15;-2.90;99.90
2002;DHT22;1003;48.002;7.788;2023-02-08T00:10:43;-2.90;99.90
2002;DHT22;1003;48.002;7.788;2023-02-08T00:13:10;-3.00;99.90
2002;DHT22;1003;48.002;7.788;2023-02-08T00:15:40;-3.10;99.90
2002;DHT22;1003;48.002;7.788;2023-02-08T00:18:09;-3.20;99.90
2002;DHT22;1003;48.002;7.788;2023-02-08T00:20:37;-3.40;99.90
2002;DHT22;1003;48.002;7.788;2023-02-08T00:23:05;-3.50;99.90
2002;DHT22;1003;48.002;7.788;2023-02-08T00:25:33;-3.50;99.90
2002;DHT22;1003;48.002;7.788;2023-02-08T00:28:00;-3.60;99.90
2002;DHT22;1003;48.002;7.788;2023-02-08T00:30:27;-3.60;99.90
2002;DHT22;1003;48.002;7.788;2023-02-08T00:32:54;-3.60;99.90
2002;DHT22;1003;48.002;7.788;2023-02-08T00:35:22;-3.60;99.90
2002;DHT22;1003;48.002;7.788;2023-02-08T00:37:49;-3.70;99.90
2002;DHT22;1003;48.002;7.788;2023-02-08T00:40:16;-3.80;99.90
2002;DHT22;1003;48.002;7.788;2023-02-08T00:42:43;-3.80;99.90
2002;DHT22;1003;48.002;7.788;2023-02-08T00:45:11;-3.90;99.90
2002;DHT22;1003;48.002;7.788;2023-02-08T00:47:38;-3.90;99.90
2002;DHT22;1003;48.002;7.788;2023-02-08T00:50:05;-4.00;99.90
2002;DHT22;1003;48.002;7.788;2023-02-08T00:52:34;-4.10;99.90
2002;DHT22;1003;48.002;7.788;2023-02-08T00:55:03;-4.10;99.90
2002;DHT22;1003;48.002;7.788;2023-02-08T00:57:31;-4.20;99.90
2002;DHT22;1003;48.002;7.788;2023-02-08T00:59:58;-4.30;99.90
2002;DHT22;1003;48.002;7.788;2023-02-08T01:02:25;-4.40;99.90
2002;DHT22;1003;48.002;7.788;2023-02-08T01:04:53;-4.40;99.90
2002;DHT22;1003;48.002;7.788;2023-02-08T01:07:20;-4.30;99.90
2002;DHT22;1003;48.002;7.788;2023-02-08T01:09:48;-4.40;99.90
2002;DHT22;1003;48.002;7.788;2023-02-08T01:12:15;-4.30;99.90
2002;DHT22;1003;48.002;7.788;2023-02-08T01:14:43;-4.30;99.90
2002;DHT22;1003;48.002;7.788;2023-02-08T01:17:10;-4.40;99.90
2002;DHT22;1003;48.002;7.788;2023-02-08T01:19:37;-4.40;99.90
2002;DHT22;1003;48.002;7.788;2023-02-08T01:22:04;-4.30;99.90
2002;DHT22;1003;48.002;7.788;2023-02-08T01:24:31;-4.10;99.90
2002;DHT22;1003;48.002;7.788;2023-02-08T01:27:00;-3.80;99.90
2002;DHT22;1003;48.002;7.788;2023-02-08T01:29:27;-3.60;99.90
2002;DHT22;1003;48.002;7.788;2023-02-08T01:31:54;-3.60;99.90
2002;DHT22;1003;48.002;7.788;2023-02-08T01:34:21;-3.60;99.90
2002;DHT22;1003;48.002;7.788;2023-02-08T01:36:48;-3.70;99.90
2002;DHT22;1003;48.002;7.788;2023-02-08T01:39:15;-3.70;99.90
2002;DHT22;1003;48.002;7.788;2023-02-08T01:41:43;-3.80;99.90
2002;DHT22;1003;48.002;7.788;2023-02-08T01:47:41;-4.00;99.90
2002;DHT22;1003;48.002;7.788;2023-02-08T01:50:09;-4.10;99.90
2002;DHT22;1003;48.002;7.788;2023-02-08T01:52:37;-4.20;99.90
2002;DHT22;1003;48.002;7.788;2023-02-08T01:55:09;-4.30;99.90
2002;DHT22;1003;48.002;7.788;2023-02-08T01:57:42;-4.40;99.90
2002;DHT22;1003;48.002;7.788;2023-02-08T02:00:13;-4.50;99.90
2002;DHT22;1003;48.002;7.788;2023-02-08T02:02:45;-4.60;99.90
2002;DHT22;1003;48.002;7.788;2023-02-08T02:05:37;-4.60;99.90
2002;DHT22;1003;48.002;7.788;2023-02-08T02:08:08;-4.60;99.90
2002;DHT22;1003;48.002;7.788;2023-02-08T02:10:37;-4.60;99.90
2002;DHT22;1003;48.002;7.788;2023-02-08T02:13:09;-4.50;99.90
2002;DHT22;1003;48.002;7.788;2023-02-08T02:15:38;-4.40;99.90
2002;DHT22;1003;48.002;7.788;2023-02-08T02:18:07;-4.20;99.90
2002;DHT22;1003;48.002;7.788;2023-02-08T02:24:42;-4.00;99.90
2002;DHT22;1003;48.002;7.788;2023-02-08T02:27:40;-4.20;99.90
2002;DHT22;1003;48.002;7.788;2023-02-08T02:30:49;-4.30;99.90
2002;DHT22;1003;48.002;7.788;2023-02-08T02:33:57;-4.50;99.90
2002;DHT22;1003;48.002;7.788;2023-02-08T02:36:35;-4.60;99.90
2002;DHT22;1003;48.002;7.788;2023-02-08T02:39:16;-4.70;99.90
2002;DHT22;1003;48.002;7.788;2023-02-08T02:41:55;-4.80;99.90
2002;DHT22;1003;48.002;7.788;2023-02-08T02:44:53;-4.80;99.90
2002;DHT22;1003;48.002;7.788;2023-02-08T02:47:32;-4.90;99.90
2002;DHT22;1003;48.002;7.788;2023-02-08T02:50:13;-4.90;99.90
2002;DHT22;1003;48.002;7.788;2023-02-08T02:52:49;-4.90;99.90
2002;DHT22;1003;48.002;7.788;2023-02-08T02:55:22;-5.00;99.90
2002;DHT22;1003;48.002;7.788;2023-02-08T02:57:53;-5.00;99.90
2002;DHT22;1003;48.002;7.788;2023-02-08T03:00:25;-5.10;99.90
2002;DHT22;1003;48.002;7.788;2023-02-08T03:02:55;-5.20;99.90
2002;DHT22;1003;48.002;7.788;2023-02-08T03:05:26;-5.10;99.90
2002;DHT22;1003;48.002;7.788;2023-02-08T03:08:17;-5.10;99.90
2002;DHT22;1003;48.002;7.788;2023-02-08T03:11:10;-5.20;99.90
2002;DHT22;1003;48.002;7.788;2023-02-08T03:13:55;-5.20;99.90
2002;DHT22;1003;48.002;7.788;2023-02-08T03:16:35;-5.20;99.90
2002;DHT22;1003;48.002;7.788;2023-02-08T03:19:24;-5.30;99.90
2002;DHT22;1003;48.002;7.788;2023-02-08T03:22:02;-5.40;99.90
2002;DHT22;1003;48.002;7.788;2023-02-08T03:24:41;-5.40;99.90
2002;DHT22;1003;48.002;7.788;2023-02-08T03:27:21;-5.50;99.90
2002;DHT22;1003;48.002;7.788;2023-02-08T03:29:59;-5.60;99.90
2002;DHT22;1003;48.002;7.788;2023-02-08T03:32:37;-5.60;99.90
2002;DHT22;1003;48.002;7.788;2023-02-08T03:35:13;-5.60;99.90
2002;DHT22;1003;48.002;7.788;2023-02-08T03:37:50;-5.60;99.90
2002;DHT22;1003;48.002;7.788;2023-02-08T03:40:27;-5.60;99.90
2002;DHT22;1003;48.002;7.788;2023-02-08T03:43:00;-5.50;99.90
2002;DHT22;1003;48.002;7.788;2023-02-08T03:45:36;-5.40;99.90
2002;DHT22;1003;48.002;7.788;2023-02-08T03:48:10;-5.30;99.90
2002;DHT22;1003;48.002;7.788;2023-02-08T03:50:41;-5.30;99.90
2002;DHT22;1003;48.002;7.788;2023-02-08T03:53:16;-5.30;99.90
2002;DHT22;1003;48.002;7.788;2023-02-08T03:55:48;-5.30;99.90
2002;DHT22;1003;48.002;7.788;2023-02-08T03:58:22;-5.30;99.90
2002;DHT22;1003;48.002;7.788;2023-02-08T04:00:55;-5.40;99.90
2002;DHT22;1003;48.002;7.788;2023-02-08T04:03:29;-5.50;99.90
2002;DHT22;1003;48.002;7.788;2023-02-08T04:05:57;-5.50;99.90
2002;DHT22;1003;48.002;7.788;2023-02-08T04:08:26;-5.60;99.90
2002;DHT22;1003;48.002;7.788;2023-02-08T04:10:53;-5.50;99.90
2002;DHT22;1003;48.002;7.788;2023-02-08T04:13:20;-5.70;99.90
2002;DHT22;1003;48.002;7.788;2023-02-08T04:15:47;-5.70;99.90
2002;DHT22;1003;48.002;7.788;2023-02-08T04:18:14;-5.80;99.90
2002;DHT22;1003;48.002;7.788;2023-02-08T04:20:41;-5.90;99.90
2002;DHT22;1003;48.002;7.788;2023-02-08T04:23:08;-5.90;99.90
2002;DHT22;1003;48.002;7.788;2023-02-08T04:25:36;-6.00;99.90
2002;DHT22;1003;48.002;7.788;2023-02-08T04:28:04;-6.00;99.90
2002;DHT22;1003;48.002;7.788;2023-02-08T04:30:31;-6.10;99.90
2002;DHT22;1003;48.002;7.788;2023-02-08T04:32:58;-6.10;99.90
2002;DHT22;1003;48.002;7.788;2023-02-08T04:35:25;-6.20;99.90
2002;DHT22;1003;48.002;7.788;2023-02-08T04:37:52;-6.30;99.90
2002;DHT22;1003;48.002;7.788;2023-02-08T04:40:19;-6.30;99.90
2002;DHT22;1003;48.002;7.788;2023-02-08T04:42:48;-6.40;99.90
2002;DHT22;1003;48.002;7.788;2023-02-08T04:45:15;-6.40;99.90
2002;DHT22;1003;48.002;7.788;2023-02-08T04:47:42;-6.40;99.90
2002;DHT22;1003;48.002;7.788;2023-02-08T04:50:09;-6.40;99.90
2002;DHT22;1003;48.002;7.788;2023-02-08T04:52:36;-6.30;99.90
2002;DHT22;1003;48.002;7.788;2023-02-08T04:55:04;-6.30;99.90
2002;DHT22;1003;48.002;7.788;2023-02-08T04:57:31;-6.30;99.90
2002;DHT22;1003;48.002;7.788;2023-02-08T05:00:00;-6.30;99.90
2002;DHT22;1003;48.002;7.788;2023-02-08T05:02:27;-6.30;99.90
2002;DHT22;1003;48.002;7.788;2023-02-08T05:04:54;-6.30;99.90
2002;DHT22;1003;48.002;7.788;2023-02-08T05:07:21;-6.30;99.90
2002;DHT22;1003;48.002;7.788;2023-02-08T05:09:48;-6.40;99.90
2002;DHT22;1003;48.002;7.788;2023-02-08T05:12:15;-6.30;99.90
2002;DHT22;1003;48.002;7.788;2023-02-08T05:14:42;-6.30;99.90
2002;DHT22;1003;48.002;7.788;2023-02-08T05:17:11;-6.30;99.90
2002;DHT22;1003;48.002;7.788;2023-02-08T05:19:38;-6.30;99.90
2002;DHT22;1003;48.002;7.788;2023-02-08T05:22:05;-6.30;99.90
2002;DHT22;1003;48.002;7.788;2023-02-08T05:24:32;-6.30;99.90
2002;DHT22;1003;48.002;7.788;2023-02-08T05:26:59;-6.40;99.90
2002;DHT22;1003;48.002;7.788;2023-02-08T05:29:26;-6.40;99.90
2002;DHT22;1003;48.002;7.788;2023-02-08T05:31:53;-6.40;99.90
2002;DHT22;1003;48.002;7.788;2023-02-08T05:34:21;-6.40;99.90
2002;DHT22;1003;48.002;7.788;2023-02-08T05:36:48;-6.50;99.90
2002;DHT22;1003;48.002;7.788;2023-02-08T05:39:15;-6.40;99.90
2002;DHT22;1003;48.002;7.788;2023-02-08T05:41:42;-6.50;99.90
2002;DHT22;1003;48.002;7.788;2023-02-08T05:44:09;-6.60;99.90
2002;DHT22;1003;48.002;7.788;2023-02-08T05:46:36;-6.60;99.90
2002;DHT22;1003;48.002;7.788;2023-02-08T05:49:03;-6.60;99.90
2002;DHT22;1003;48.002;7.788;2023-02-08T05:51:32;-6.50;99.90
2002;DHT22;1003;48.002;7.788;2023-02-08T05:53:59;-6.40;99.90
2002;DHT22;1003;48.002;7.788;2023-02-08T05:56:26;-6.40;99.90
2002;DHT22;1003;48.002;7.788;2023-02-08T05:58:54;-6.40;99.90
2002;DHT22;1003;48.002;7.788;2023-02-08T06:01:21;-6.40;99.90
2002;DHT22;1003;48.002;7.788;2023-02-08T06:03:48;-6.40;99.90
2002;DHT22;1003;48.002;7.788;2023-02-08T06:06:15;-6.40;99.90
2002;DHT22;1003;48.002;7.788;2023-02-08T06:08:44;-6.50;99.90
2002;DHT22;1003;48.002;7.788;2023-02-08T06:11:11;-6.50;99.90
2002;DHT22;1003;48.002;7.788;2023-02-08T06:13:38;-6.60;99.90
2002;DHT22;1003;48.002;7.788;2023-02-08T06:16:06;-6.50;99.90
2002;DHT22;1003;48.002;7.788;2023-02-08T06:18:33;-6.50;99.90
2002;DHT22;1003;48.002;7.788;2023-02-08T06:21:00;-6.60;99.90
2002;DHT22;1003;48.002;7.788;2023-02-08T06:23:29;-6.60;99.90
2002;DHT22;1003;48.002;7.788;2023-02-08T06:25:58;-6.70;99.90
2002;DHT22;1003;48.002;7.788;2023-02-08T06:28:25;-6.70;99.90
2002;DHT22;1003;48.002;7.788;2023-02-08T06:30:52;-6.50;99.90
2002;DHT22;1003;48.002;7.788;2023-02-08T06:33:19;-6.50;99.90
2002;DHT22;1003;48.002;7.788;2023-02-08T06:35:46;-6.60;99.90
2002;DHT22;1003;48.002;7.788;2023-02-08T06:38:17;-6.70;99.90
2002;DHT22;1003;48.002;7.788;2023-02-08T06:40:45;-6.60;99.90
2002;DHT22;1003;48.002;7.788;2023-02-08T06:43:15;-6.70;99.90
2002;DHT22;1003;48.002;7.788;2023-02-08T06:45:43;-6.60;99.90
2002;DHT22;1003;48.002;7.788;2023-02-08T06:48:11;-6.60;99.90
2002;DHT22;1003;48.002;7.788;2023-02-08T06:50:38;-6.70;99.90
2002;DHT22;1003;48.002;7.788;2023-02-08T06:53:05;-6.60;99.90
2002;DHT22;1003;48.002;7.788;2023-02-08T06:55:32;-6.60;99.90
2002;DHT22;1003;48.002;7.788;2023-02-08T06:57:59;-6.60;99.90
2002;DHT22;1003;48.002;7.788;2023-02-08T07:00:28;-6.60;99.90
2002;DHT22;1003;48.002;7.788;2023-02-08T07:02:55;-6.50;99.90
2002;DHT22;1003;48.002;7.788;2023-02-08T07:05:43;-6.50;99.90
2002;DHT22;1003;48.002;7.788;2023-02-08T07:08:17;-6.60;99.90
2002;DHT22;1003;48.002;7.788;2023-02-08T07:10:44;-6.70;99.90
2002;DHT22;1003;48.002;7.788;2023-02-08T07:13:11;-6.70;99.90
2002;DHT22;1003;48.002;7.788;2023-02-08T07:15:39;-6.70;99.90
2002;DHT22;1003;48.002;7.788;2023-02-08T07:18:06;-6.70;99.90
2002;DHT22;1003;48.002;7.788;2023-02-08T07:20:33;-6.60;99.90
2002;DHT22;1003;48.002;7.788;2023-02-08T07:23:00;-6.70;99.90
2002;DHT22;1003;48.002;7.788;2023-02-08T07:25:27;-6.60;99.90
2002;DHT22;1003;48.002;7.788;2023-02-08T07:27:54;-6.60;99.90
2002;DHT22;1003;48.002;7.788;2023-02-08T07:30:21;-6.50;99.90
2002;DHT22;1003;48.002;7.788;2023-02-08T07:32:50;-6.30;99.90
2002;DHT22;1003;48.002;7.788;2023-02-08T07:35:17;-6.10;99.90
2002;DHT22;1003;48.002;7.788;2023-02-08T07:37:44;-6.00;99.90
2002;DHT22;1003;48.002;7.788;2023-02-08T07:40:11;-5.90;99.90
2002;DHT22;1003;48.002;7.788;2023-02-08T07:42:38;-5.80;99.90
2002;DHT22;1003;48.002;7.788;2023-02-08T07:45:06;-5.70;99.90
2002;DHT22;1003;48.002;7.788;2023-02-08T07:47:33;-5.50;99.90
2002;DHT22;1003;48.002;7.788;2023-02-08T07:50:01;-5.40;99.90
2002;DHT22;1003;48.002;7.788;2023-02-08T07:52:29;-5.30;99.90
2002;DHT22;1003;48.002;7.788;2023-02-08T07:54:56;-5.10;99.90
2002;DHT22;1003;48.002;7.788;2023-02-08T07:57:23;-5.00;99.90
2002;DHT22;1003;48.002;7.788;2023-02-08T07:59:50;-5.00;99.90
2002;DHT22;1003;48.002;7.788;2023-02-08T08:02:17;-4.90;99.90
2002;DHT22;1003;48.002;7.788;2023-02-08T08:04:44;-4.80;99.90
2002;DHT22;1003;48.002;7.788;2023-02-08T08:07:13;-4.70;99.90
2002;DHT22;1003;48.002;7.788;2023-02-08T08:09:40;-4.60;99.90
2002;DHT22;1003;48.002;7.788;2023-02-08T08:12:07;-4.50;99.90
2002;DHT22;1003;48.002;7.788;2023-02-08T08:14:34;-4.40;99.90
2002;DHT22;1003;48.002;7.788;2023-02-08T08:17:01;-4.20;99.90
2002;DHT22;1003;48.002;7.788;2023-02-08T08:19:28;-4.20;99.90
2002;DHT22;1003;48.002;7.788;2023-02-08T08:21:55;-4.10;99.90
2002;DHT22;1003;48.002;7.788;2023-02-08T08:24:24;-4.00;99.90
2002;DHT22;1003;48.002;7.788;2023-02-08T08:26:56;-3.90;99.90
2002;DHT22;1003;48.002;7.788;2023-02-08T08:29:23;-3.80;99.90
2002;DHT22;1003;48.002;7.788;2023-02-08T08:31:51;-3.80;99.90
2002;DHT22;1003;48.002;7.788;2023-02-08T08:34:18;-3.70;99.90
2002;DHT22;1003;48.002;7.788;2023-02-08T08:36:46;-3.70;99.90
2002;DHT22;1003;48.002;7.788;2023-02-08T08:39:13;-3.50;99.90
2002;DHT22;1003;48.002;7.788;2023-02-08T08:41:42;-3.50;99.90
2002;DHT22;1003;48.002;7.788;2023-02-08T08:44:09;-3.40;99.90
2002;DHT22;1003;48.002;7.788;2023-02-08T08:46:36;-3.30;99.90
2002;DHT22;1003;48.002;7.788;2023-02-08T08:49:03;-3.20;99.90
2002;DHT22;1003;48.002;7.788;2023-02-08T08:51:30;-3.10;99.90
2002;DHT22;1003;48.002;7.788;2023-02-08T08:53:59;-3.00;99.90
2002;DHT22;1003;48.002;7.788;2023-02-08T08:56:27;-2.90;99.90
2002;DHT22;1003;48.002;7.788;2023-02-08T08:58:55;-2.80;99.90
2002;DHT22;1003;48.002;7.788;2023-02-08T09:01:23;-2.70;99.90
2002;DHT22;1003;48.002;7.788;2023-02-08T09:03:50;-2.60;99.90
2002;DHT22;1003;48.002;7.788;2023-02-08T09:06:17;-2.40;99.90
2002;DHT22;1003;48.002;7.788;2023-02-08T09:08:44;-2.20;99.90
2002;DHT22;1003;48.002;7.788;2023-02-08T09:11:13;-2.20;99.90
2002;DHT22;1003;48.002;7.788;2023-02-08T09:13:41;-2.10;99.90
2002;DHT22;1003;48.002;7.788;2023-02-08T09:16:13;-2.10;99.90
2002;DHT22;1003;48.002;7.788;2023-02-08T09:18:43;-1.90;99.90
2002;DHT22;1003;48.002;7.788;2023-02-08T09:21:13;-1.80;99.90
2002;DHT22;1003;48.002;7.788;2023-02-08T09:23:42;-1.70;99.90
2002;DHT22;1003;48.002;7.788;2023-02-08T09:26:13;-1.60;99.90
2002;DHT22;1003;48.002;7.788;2023-02-08T09:28:42;-1.50;99.90
2002;DHT22;1003;48.002;7.788;2023-02-08T09:31:12;-1.50;99.90
2002;DHT22;1003;48.002;7.788;2023-02-08T09:33:43;-1.40;99.90
2002;DHT22;1003;48.002;7.788;2023-02-08T09:36:10;-1.40;99.90
2002;DHT22;1003;48.002;7.788;2023-02-08T09:38:38;-1.30;99.90
2002;DHT22;1003;48.002;7.788;2023-02-08T09:41:15;-1.20;99.90
2002;DHT22;1003;48.002;7.788;2023-02-08T09:43:58;-1.10;99.90
2002;DHT22;1003;48.002;7.788;2023-02-08T09:46:46;-1.00;99.90
2002;DHT22;1003;48.002;7.788;2023-02-08T09:49:25;-0.90;99.90
2002;DHT22;1003;48.002;7.788;2023-02-08T09:51:59;-0.80;99.90
2002;DHT22;1003;48.002;7.788;2023-02-08T09:54:32;-0.60;99.90
2002;DHT22;1003;48.002;7.788;2023-02-08T09:57:07;-0.60;99.90
2002;DHT22;1003;48.002;7.788;2023-02-08T09:59:40;-0.50;99.90
2002;DHT22;1003;48.002;7.788;2023-02-08T10:02:21;-0.50;99.90
2002;DHT22;1003;48.002;7.788;2023-02-08T10:04:57;-0.40;99.90
2002;DHT22;1003;48.002;7.788;2023-02-08T10:07:26;-0.30;99.90
2002;DHT22;1003;48.002;7.788;2023-02-08T10:09:56;-0.30;99.90
2002;DHT22;1003;48.002;7.788;2023-02-08T10:12:35;-0.20;99.90
2002;DHT22;1003;48.002;7.788;2023-02-08T10:15:15;-0.10;99.90
2002;DHT22;1003;48.002;7.788;2023-02-08T10:18:14;0.00;99.90
2002;DHT22;1003;48.002;7.788;2023-02-08T10:21:00;0.00;99.90
2002;DHT22;1003;48.002;7.788;2023-02-08T10:24:06;0.00;99.90
2002;DHT22;1003;48.002;7.788;2023-02-08T10:26:46;0.20;99.90
2002;DHT22;1003;48.002;7.788;2023-02-08T10:29:42;0.20;99.90
2002;DHT22;1003;48.002;7.788;2023-02-08T10:35:24;0.40;99.90
2002;DHT22;1003;48.002;7.788;2023-02-08T10:37:54;0.30;99.90
2002;DHT22;1003;48.002;7.788;2023-02-08T10:40:34;0.40;99.90
2002;DHT22;1003;48.002;7.788;2023-02-08T10:43:14;0.50;99.90
2002;DHT22;1003;48.002;7.788;2023-02-08T10:45:50;0.60;99.90
2002;DHT22;1003;48.002;7.788;2023-02-08T10:48:30;0.70;99.90
2002;DHT22;1003;48.002;7.788;2023-02-08T10:51:12;0.80;99.90
2002;DHT22;1003;48.002;7.788;2023-02-08T10:53:42;0.90;99.90
2002;DHT22;1003;48.002;7.788;2023-02-08T10:56:22;0.90;99.90
2002;DHT22;1003;48.002;7.788;2023-02-08T10:58:57;1.10;99.90
2002;DHT22;1003;48.002;7.788;2023-02-08T11:01:26;1.10;99.90
2002;DHT22;1003;48.002;7.788;2023-02-08T11:04:01;1.10;99.90
2002;DHT22;1003;48.002;7.788;2023-02-08T11:06:32;1.10;99.90
2002;DHT22;1003;48.002;7.788;2023-02-08T11:08:59;1.20;99.90
2002;DHT22;1003;48.002;7.788;2023-02-08T11:11:26;1.20;99.90
2002;DHT22;1003;48.002;7.788;2023-02-08T11:14:07;1.30;99.90
2002;DHT22;1003;48.002;7.788;2023-02-08T11:16:35;1.60;99.90
2002;DHT22;1003;48.002;7.788;2023-02-08T11:19:04;1.60;99.90
2002;DHT22;1003;48.002;7.788;2023-02-08T11:21:36;1.70;99.90
2002;DHT22;1003;48.002;7.788;2023-02-08T11:24:26;1.70;99.90
2002;DHT22;1003;48.002;7.788;2023-02-08T11:26:58;1.60;99.90
2002;DHT22;1003;48.002;7.788;2023-02-08T11:29:28;1.50;99.90
2002;DHT22;1003;48.002;7.788;2023-02-08T11:31:58;1.60;99.90
2002;DHT22;1003;48.002;7.788;2023-02-08T11:34:28;1.80;99.90
2002;DHT22;1003;48.002;7.788;2023-02-08T11:37:01;2.10;99.90
2002;DHT22;1003;48.002;7.788;2023-02-08T11:39:37;2.20;99.90
2002;DHT22;1003;48.002;7.788;2023-02-08T11:42:06;2.30;99.90
2002;DHT22;1003;48.002;7.788;2023-02-08T11:44:42;2.30;99.90
2002;DHT22;1003;48.002;7.788;2023-02-08T11:47:15;2.20;99.90
2002;DHT22;1003;48.002;7.788;2023-02-08T11:49:51;2.30;99.90
2002;DHT22;1003;48.002;7.788;2023-02-08T11:52:23;2.40;99.90
2002;DHT22;1003;48.002;7.788;2023-02-08T11:54:53;2.50;99.90
2002;DHT22;1003;48.002;7.788;2023-02-08T11:57:22;2.60;99.90
2002;DHT22;1003;48.002;7.788;2023-02-08T12:00:15;2.70;99.90
2002;DHT22;1003;48.002;7.788;2023-02-08T12:02:45;2.60;99.90
2002;DHT22;1003;48.002;7.788;2023-02-08T12:05:15;2.60;99.90
2002;DHT22;1003;48.002;7.788;2023-02-08T12:08:02;2.60;99.90
2002;DHT22;1003;48.002;7.788;2023-02-08T12:11:00;2.80;99.90
2002;DHT22;1003;48.002;7.788;2023-02-08T12:13:47;2.80;99.90
2002;DHT22;1003;48.002;7.788;2023-02-08T12:16:34;2.90;99.90
2002;DHT22;1003;48.002;7.788;2023-02-08T12:19:26;2.90;99.90
2002;DHT22;1003;48.002;7.788;2023-02-08T12:22:20;2.90;99.90
2002;DHT22;1003;48.002;7.788;2023-02-08T12:25:01;2.90;99.90
2002;DHT22;1003;48.002;7.788;2023-02-08T12:27:44;3.00;99.90
2002;DHT22;1003;48.002;7.788;2023-02-08T12:30:25;3.00;99.90
2002;DHT22;1003;48.002;7.788;2023-02-08T12:33:19;3.00;99.90
2002;DHT22;1003;48.002;7.788;2023-02-08T12:36:34;3.10;99.90
2002;DHT22;1003;48.002;7.788;2023-02-08T12:39:25;3.20;99.90
2002;DHT22;1003;48.002;7.788;2023-02-08T12:42:36;3.30;99.90
2002;DHT22;1003;48.002;7.788;2023-02-08T12:48:49;3.30;99.90
2002;DHT22;1003;48.002;7.788;2023-02-08T12:51:37;3.30;99.90
2002;DHT22;1003;48.002;7.788;2023-02-08T12:54:16;3.40;99.90
2002;DHT22;1003;48.002;7.788;2023-02-08T12:56:51;3.30;99.90
2002;DHT22;1003;48.002;7.788;2023-02-08T12:59:27;3.30;99.90
2002;DHT22;1003;48.002;7.788;2023-02-08T13:02:01;3.40;99.90
2002;DHT22;1003;48.002;7.788;2023-02-08T13:04:40;3.40;99.90
2002;DHT22;1003;48.002;7.788;2023-02-08T13:07:13;3.40;99.90
2002;DHT22;1003;48.002;7.788;2023-02-08T13:09:50;3.40;99.90
2002;DHT22;1003;48.002;7.788;2023-02-08T13:12:25;3.40;99.90
2002;DHT22;1003;48.002;7.788;2023-02-08T13:15:02;3.40;99.90
2002;DHT22;1003;48.002;7.788;2023-02-08T13:17:41;3.40;99.90
2002;DHT22;1003;48.002;7.788;2023-02-08T13:20:25;3.50;99.90
2002;DHT22;1003;48.002;7.788;2023-02-08T13:23:02;3.50;99.90
2002;DHT22;1003;48.002;7.788;2023-02-08T13:25:34;3.60;99.90
2002;DHT22;1003;48.002;7.788;2023-02-08T13:28:03;3.60;99.90
2002;DHT22;1003;48.002;7.788;2023-02-08T13:30:36;3.70;99.90
2002;DHT22;1003;48.002;7.788;2023-02-08T13:33:11;3.60;99.90
2002;DHT22;1003;48.002;7.788;2023-02-08T13:35:42;3.50;99.90
2002;DHT22;1003;48.002;7.788;2023-02-08T13:38:21;3.60;99.90
2002;DHT22;1003;48.002;7.788;2023-02-08T13:41:07;3.50;99.90
2002;DHT22;1003;48.002;7.788;2023-02-08T13:43:47;3.50;99.90
2002;DHT22;1003;48.002;7.788;2023-02-08T13:46:19;3.70;99.90
2002;DHT22;1003;48.002;7.788;2023-02-08T13:48:50;3.70;99.90
2002;DHT22;1003;48.002;7.788;2023-02-08T13:51:49;3.80;99.90
2002;DHT22;1003;48.002;7.788;2023-02-08T13:54:18;3.80;99.90
2002;DHT22;1003;48.002;7.788;2023-02-08T13:56:47;3.80;99.90
2002;DHT22;1003;48.002;7.788;2023-02-08T13:59:27;3.80;99.90
2002;DHT22;1003;48.002;7.788;2023-02-08T14:02:23;3.80;99.90
2002;DHT22;1003;48.002;7.788;2023-02-08T14:05:33;3.90;99.90
2002;DHT22;1003;48.002;7.788;2023-02-08T14:08:18;3.90;99.90
2002;DHT22;1003;48.002;7.788;2023-02-08T14:11:01;3.90;99.90
2002;DHT22;1003;48.002;7.788;2023-02-08T14:13:40;3.80;99.90
2002;DHT22;1003;48.002;7.788;2023-02-08T14:16:30;3.70;99.90
2002;DHT22;1003;48.002;7.788;2023-02-08T14:19:04;3.70;99.90
2002;DHT22;1003;48.002;7.788;2023-02-08T14:21:47;3.70;99.90
2002;DHT22;1003;48.002;7.788;2023-02-08T14:24:27;3.70;99.90
2002;DHT22;1003;48.002;7.788;2023-02-08T14:27:05;3.70;99.90
2002;DHT22;1003;48.002;7.788;2023-02-08T14:29:35;3.80;99.90
2002;DHT22;1003;48.002;7.788;2023-02-08T14:32:04;3.80;99.90
2002;DHT22;1003;48.002;7.788;2023-02-08T14:34:34;3.70;99.90
2002;DHT22;1003;48.002;7.788;2023-02-08T14:37:27;3.80;99.90
2002;DHT22;1003;48.002;7.788;2023-02-08T14:40:31;3.70;99.90
2002;DHT22;1003;48.002;7.788;2023-02-08T14:43:30;3.70;99.90
2002;DHT22;1003;48.002;7.788;2023-02-08T14:49:10;3.60;99.90
2002;DHT22;1003;48.002;7.788;2023-02-08T14:51:46;3.60;99.90
2002;DHT22;1003;48.002;7.788;2023-02-08T14:54:21;3.60;99.90
2002;DHT22;1003;48.002;7.788;2023-02-08T14:56:56;3.60;99.90
2002;DHT22;1003;48.002;7.788;2023-02-08T14:59:30;3.60;99.90
2002;DHT22;1003;48.002;7.788;2023-02-08T15:02:00;3.50;99.90
2002;DHT22;1003;48.002;7.788;2023-02-08T15:04:29;3.40;99.90
2002;DHT22;1003;48.002;7.788;2023-02-08T15:07:21;3.30;99.90
2002;DHT22;1003;48.002;7.788;2023-02-08T15:09:55;3.20;99.90
2002;DHT22;1003;48.002;7.788;2023-02-08T15:12:25;3.20;99.90
2002;DHT22;1003;48.002;7.788;2023-02-08T15:15:24;3.10;99.90
2002;DHT22;1003;48.002;7.788;2023-02-08T15:17:54;3.00;99.90
2002;DHT22;1003;48.002;7.788;2023-02-08T15:20:24;3.00;99.90
2002;DHT22;1003;48.002;7.788;2023-02-08T15:22:59;2.90;99.90
2002;DHT22;1003;48.002;7.788;2023-02-08T15:25:30;2.80;99.90
2002;DHT22;1003;48.002;7.788;2023-02-08T15:28:01;2.80;99.90
2002;DHT22;1003;48.002;7.788;2023-02-08T15:30:41;2.70;99.90
2002;DHT22;1003;48.002;7.788;2023-02-08T15:33:14;2.80;99.90
2002;DHT22;1003;48.002;7.788;2023-02-08T15:35:43;2.70;99.90
2002;DHT22;1003;48.002;7.788;2023-02-08T15:38:15;2.60;99.90
2002;DHT22;1003;48.002;7.788;2023-02-08T15:41:02;2.50;99.90
2002;DHT22;1003;48.002;7.788;2023-02-08T15:43:33;2.40;99.90
2002;DHT22;1003;48.002;7.788;2023-02-08T15:46:03;2.30;99.90
2002;DHT22;1003;48.002;7.788;2023-02-08T15:48:32;2.30;99.90
2002;DHT22;1003;48.002;7.788;2023-02-08T15:51:02;2.10;99.90
2002;DHT22;1003;48.002;7.788;2023-02-08T15:53:34;2.00;99.90
2002;DHT22;1003;48.002;7.788;2023-02-08T15:56:14;1.90;99.90
2002;DHT22;1003;48.002;7.788;2023-02-08T15:58:48;1.80;99.90
2002;DHT22;1003;48.002;7.788;2023-02-08T16:01:20;1.70;99.90
2002;DHT22;1003;48.002;7.788;2023-02-08T16:03:48;1.60;99.90
2002;DHT22;1003;48.002;7.788;2023-02-08T16:06:23;1.50;99.90
2002;DHT22;1003;48.002;7.788;2023-02-08T16:08:54;1.40;99.90
2002;DHT22;1003;48.002;7.788;2023-02-08T16:11:27;1.30;99.90
2002;DHT22;1003;48.002;7.788;2023-02-08T16:13:57;1.20;99.90
2002;DHT22;1003;48.002;7.788;2023-02-08T16:16:38;1.10;99.90
2002;DHT22;1003;48.002;7.788;2023-02-08T16:19:19;1.00;99.90
2002;DHT22;1003;48.002;7.788;2023-02-08T16:21:48;0.80;99.90
2002;DHT22;1003;48.002;7.788;2023-02-08T16:24:23;0.80;99.90
2002;DHT22;1003;48.002;7.788;2023-02-08T16:26:57;0.70;99.90
2002;DHT22;1003;48.002;7.788;2023-02-08T16:29:31;0.60;99.90
2002;DHT22;1003;48.002;7.788;2023-02-08T16:32:03;0.50;99.90
2002;DHT22;1003;48.002;7.788;2023-02-08T16:34:32;0.40;99.90
2002;DHT22;1003;48.002;7.788;2023-02-08T16:37:02;0.30;99.90
2002;DHT22;1003;48.002;7.788;2023-02-08T16:39:38;0.20;99.90
2002;DHT22;1003;48.002;7.788;2023-02-08T16:42:28;0.10;99.90
2002;DHT22;1003;48.002;7.788;2023-02-08T16:45:11;0.00;99.90
2002;DHT22;1003;48.002;7.788;2023-02-08T16:47:43;-0.20;99.90
2002;DHT22;1003;48.002;7.788;2023-02-08T16:50:13;-0.30;99.90
2002;DHT22;1003;48.002;7.788;2023-02-08T16:52:42;-0.30;99.90
2002;DHT22;1003;48.002;7.788;2023-02-08T16:55:17;-0.40;99.90
2002;DHT22;1003;48.002;7.788;2023-02-08T16:57:53;-0.50;99.90
2002;DHT22;1003;48.002;7.788;2023-02-08T17:00:24;-0.60;99.90
2002;DHT22;1003;48.002;7.788;2023-02-08T17:02:53;-0.60;99.90